Terminal Aerodrome Forecast
Issued by NWS Sioux Falls, SD

Home | Current Version | Previous Version | Text Only | Print | Product List | Glossary On
Versions: 1 2 3 4 5 6 7 8 9 10 11 12 13 14 15
000
FTUS43 KFSD 291100
TAFFSD
TAF
KFSD 291131Z 2912/3012 VRB02KT P6SM MIFG FEW060
     FM291300 VRB03KT P6SM FEW060
     FM291500 34008KT P6SM SCT040
     FM300200 VRB03KT P6SM SKC=

USA.gov is the U.S. government's official web portal to all federal, state and local government web resources and services.